Terminal Aerodrome Forecast
Issued by NWS Columbia, SC

Home | Current Version | Previous Version | Text Only | Print | Product List | Glossary On
Versions: 1 2 3 4 5 6 7 8 9 10 11 12 13 14 15 16 17 18 19 20 21 22 23 24 25 26 27 28 29 30 31 32
000
FTUS42 KCAE 260500
TAFCAE
TAF
KCAE 260527Z 2606/2706 22009KT P6SM SKC WS010/24035KT
      TEMPO 2608/2612 BKN015
     FM261400 28015G24KT P6SM SCT035
     FM270200 02012KT P6SM OVC015=

USA.gov is the U.S. government's official web portal to all federal, state and local government web resources and services.